sensor_id;sensor_type;location;lat;lon;timestamp;temperature;humidity
29363;DHT22;16349;53.672;10.014;2023-04-19T00:02:13;5.70;99.90
29363;DHT22;16349;53.672;10.014;2023-04-19T00:04:41;5.70;99.90
29363;DHT22;16349;53.672;10.014;2023-04-19T00:07:09;5.70;99.90
29363;DHT22;16349;53.672;10.014;2023-04-19T00:09:37;5.70;99.90
29363;DHT22;16349;53.672;10.014;2023-04-19T00:12:05;5.70;99.90
29363;DHT22;16349;53.672;10.014;2023-04-19T00:14:32;5.60;99.90
29363;DHT22;16349;53.672;10.014;2023-04-19T00:16:59;5.60;99.90
29363;DHT22;16349;53.672;10.014;2023-04-19T00:19:26;5.60;99.90
29363;DHT22;16349;53.672;10.014;2023-04-19T00:21:53;5.50;99.90
29363;DHT22;16349;53.672;10.014;2023-04-19T00:24:20;5.60;99.90
29363;DHT22;16349;53.672;10.014;2023-04-19T00:26:48;5.50;99.90
29363;DHT22;16349;53.672;10.014;2023-04-19T00:29:15;5.60;99.90
29363;DHT22;16349;53.672;10.014;2023-04-19T00:31:43;5.60;99.90
29363;DHT22;16349;53.672;10.014;2023-04-19T00:34:10;5.60;99.90
29363;DHT22;16349;53.672;10.014;2023-04-19T00:36:36;5.60;99.90
29363;DHT22;16349;53.672;10.014;2023-04-19T00:39:05;5.60;99.90
29363;DHT22;16349;53.672;10.014;2023-04-19T00:41:32;5.60;99.90
29363;DHT22;16349;53.672;10.014;2023-04-19T00:44:00;5.50;99.90
29363;DHT22;16349;53.672;10.014;2023-04-19T00:46:28;5.50;99.90
29363;DHT22;16349;53.672;10.014;2023-04-19T00:48:54;5.50;99.90
29363;DHT22;16349;53.672;10.014;2023-04-19T00:51:22;5.50;99.90
29363;DHT22;16349;53.672;10.014;2023-04-19T00:53:49;5.50;99.90
29363;DHT22;16349;53.672;10.014;2023-04-19T00:56:18;5.40;99.90
29363;DHT22;16349;53.672;10.014;2023-04-19T00:58:48;5.50;99.90
29363;DHT22;16349;53.672;10.014;2023-04-19T01:01:16;5.50;99.90
29363;DHT22;16349;53.672;10.014;2023-04-19T01:03:45;5.50;99.90
29363;DHT22;16349;53.672;10.014;2023-04-19T01:06:12;5.50;99.90
29363;DHT22;16349;53.672;10.014;2023-04-19T01:08:40;5.50;99.90
29363;DHT22;16349;53.672;10.014;2023-04-19T01:11:08;5.50;99.90
29363;DHT22;16349;53.672;10.014;2023-04-19T01:13:35;5.50;99.90
29363;DHT22;16349;53.672;10.014;2023-04-19T01:16:03;5.50;99.90
29363;DHT22;16349;53.672;10.014;2023-04-19T01:18:31;5.40;99.90
29363;DHT22;16349;53.672;10.014;2023-04-19T01:21:03;5.40;99.90
29363;DHT22;16349;53.672;10.014;2023-04-19T01:23:33;5.50;99.90
29363;DHT22;16349;53.672;10.014;2023-04-19T01:26:00;5.50;99.90
29363;DHT22;16349;53.672;10.014;2023-04-19T01:28:28;5.40;99.90
29363;DHT22;16349;53.672;10.014;2023-04-19T01:30:54;5.40;99.90
29363;DHT22;16349;53.672;10.014;2023-04-19T01:33:22;5.40;99.90
29363;DHT22;16349;53.672;10.014;2023-04-19T01:35:49;5.40;99.90
29363;DHT22;16349;53.672;10.014;2023-04-19T01:38:16;5.40;99.90
29363;DHT22;16349;53.672;10.014;2023-04-19T01:40:44;5.40;99.90
29363;DHT22;16349;53.672;10.014;2023-04-19T01:43:12;5.40;99.90
29363;DHT22;16349;53.672;10.014;2023-04-19T01:45:39;5.30;99.90
29363;DHT22;16349;53.672;10.014;2023-04-19T01:48:07;5.30;99.90
29363;DHT22;16349;53.672;10.014;2023-04-19T01:50:34;5.30;99.90
29363;DHT22;16349;53.672;10.014;2023-04-19T01:53:03;5.30;99.90
29363;DHT22;16349;53.672;10.014;2023-04-19T01:55:31;5.30;99.90
29363;DHT22;16349;53.672;10.014;2023-04-19T01:57:59;5.20;99.90
29363;DHT22;16349;53.672;10.014;2023-04-19T02:00:27;5.20;99.90
29363;DHT22;16349;53.672;10.014;2023-04-19T02:02:55;5.20;99.90
29363;DHT22;16349;53.672;10.014;2023-04-19T02:05:22;5.20;99.90
29363;DHT22;16349;53.672;10.014;2023-04-19T02:07:49;5.20;99.90
29363;DHT22;16349;53.672;10.014;2023-04-19T02:10:16;5.10;99.90
29363;DHT22;16349;53.672;10.014;2023-04-19T02:12:44;5.10;99.90
29363;DHT22;16349;53.672;10.014;2023-04-19T02:15:12;5.10;99.90
29363;DHT22;16349;53.672;10.014;2023-04-19T02:17:39;5.10;99.90
29363;DHT22;16349;53.672;10.014;2023-04-19T02:20:07;5.00;99.90
29363;DHT22;16349;53.672;10.014;2023-04-19T02:22:35;5.00;99.90
29363;DHT22;16349;53.672;10.014;2023-04-19T02:25:05;5.00;99.90
29363;DHT22;16349;53.672;10.014;2023-04-19T02:27:32;4.90;99.90
29363;DHT22;16349;53.672;10.014;2023-04-19T02:29:59;4.90;99.90
29363;DHT22;16349;53.672;10.014;2023-04-19T02:32:27;4.90;99.90
29363;DHT22;16349;53.672;10.014;2023-04-19T02:34:54;4.90;99.90
29363;DHT22;16349;53.672;10.014;2023-04-19T02:37:23;4.80;99.90
29363;DHT22;16349;53.672;10.014;2023-04-19T02:39:50;4.80;99.90
29363;DHT22;16349;53.672;10.014;2023-04-19T02:42:17;4.70;99.90
29363;DHT22;16349;53.672;10.014;2023-04-19T02:44:44;4.70;99.90
29363;DHT22;16349;53.672;10.014;2023-04-19T02:47:11;4.70;99.90
29363;DHT22;16349;53.672;10.014;2023-04-19T02:49:40;4.70;99.90
29363;DHT22;16349;53.672;10.014;2023-04-19T02:52:08;4.60;99.90
29363;DHT22;16349;53.672;10.014;2023-04-19T02:54:38;4.60;99.90
29363;DHT22;16349;53.672;10.014;2023-04-19T02:57:06;4.50;99.90
29363;DHT22;16349;53.672;10.014;2023-04-19T02:59:32;4.60;99.90
29363;DHT22;16349;53.672;10.014;2023-04-19T03:02:02;4.60;99.90
29363;DHT22;16349;53.672;10.014;2023-04-19T03:04:29;4.60;99.90
29363;DHT22;16349;53.672;10.014;2023-04-19T03:06:57;4.60;99.90
29363;DHT22;16349;53.672;10.014;2023-04-19T03:09:25;4.70;99.90
29363;DHT22;16349;53.672;10.014;2023-04-19T03:11:51;4.60;99.90
29363;DHT22;16349;53.672;10.014;2023-04-19T03:14:19;4.70;99.90
29363;DHT22;16349;53.672;10.014;2023-04-19T03:16:46;4.60;99.90
29363;DHT22;16349;53.672;10.014;2023-04-19T03:19:13;4.70;99.90
29363;DHT22;16349;53.672;10.014;2023-04-19T03:21:46;4.60;99.90
29363;DHT22;16349;53.672;10.014;2023-04-19T03:24:17;4.60;99.90
29363;DHT22;16349;53.672;10.014;2023-04-19T03:26:48;4.60;99.90
29363;DHT22;16349;53.672;10.014;2023-04-19T03:29:21;4.60;99.90
29363;DHT22;16349;53.672;10.014;2023-04-19T03:31:57;4.60;99.90
29363;DHT22;16349;53.672;10.014;2023-04-19T03:34:26;4.60;99.90
29363;DHT22;16349;53.672;10.014;2023-04-19T03:36:53;4.60;99.90
29363;DHT22;16349;53.672;10.014;2023-04-19T03:39:21;4.50;99.90
29363;DHT22;16349;53.672;10.014;2023-04-19T03:41:52;4.50;99.90
29363;DHT22;16349;53.672;10.014;2023-04-19T03:44:39;4.50;99.90
29363;DHT22;16349;53.672;10.014;2023-04-19T03:47:08;4.50;99.90
29363;DHT22;16349;53.672;10.014;2023-04-19T03:49:40;4.50;99.90
29363;DHT22;16349;53.672;10.014;2023-04-19T03:52:08;4.40;99.90
29363;DHT22;16349;53.672;10.014;2023-04-19T03:54:36;4.40;99.90
29363;DHT22;16349;53.672;10.014;2023-04-19T03:57:07;4.40;99.90
29363;DHT22;16349;53.672;10.014;2023-04-19T03:59:37;4.30;99.90
29363;DHT22;16349;53.672;10.014;2023-04-19T04:02:05;4.30;99.90
29363;DHT22;16349;53.672;10.014;2023-04-19T04:04:33;4.30;99.90
29363;DHT22;16349;53.672;10.014;2023-04-19T04:07:00;4.30;99.90
29363;DHT22;16349;53.672;10.014;2023-04-19T04:09:27;4.30;99.90
29363;DHT22;16349;53.672;10.014;2023-04-19T04:11:55;4.30;99.90
29363;DHT22;16349;53.672;10.014;2023-04-19T04:14:24;4.30;99.90
29363;DHT22;16349;53.672;10.014;2023-04-19T04:16:51;4.30;99.90
29363;DHT22;16349;53.672;10.014;2023-04-19T04:19:19;4.30;99.90
29363;DHT22;16349;53.672;10.014;2023-04-19T04:21:49;4.20;99.90
29363;DHT22;16349;53.672;10.014;2023-04-19T04:24:16;4.20;99.90
29363;DHT22;16349;53.672;10.014;2023-04-19T04:27:04;4.20;99.90
29363;DHT22;16349;53.672;10.014;2023-04-19T04:29:35;4.20;99.90
29363;DHT22;16349;53.672;10.014;2023-04-19T04:32:06;4.20;99.90
29363;DHT22;16349;53.672;10.014;2023-04-19T04:34:38;4.20;99.90
29363;DHT22;16349;53.672;10.014;2023-04-19T04:37:15;4.30;99.90
29363;DHT22;16349;53.672;10.014;2023-04-19T04:39:43;4.30;99.90
29363;DHT22;16349;53.672;10.014;2023-04-19T04:42:12;4.30;99.90
29363;DHT22;16349;53.672;10.014;2023-04-19T04:44:39;4.40;99.90
29363;DHT22;16349;53.672;10.014;2023-04-19T04:47:07;4.50;99.90
29363;DHT22;16349;53.672;10.014;2023-04-19T04:49:42;4.50;99.90
29363;DHT22;16349;53.672;10.014;2023-04-19T04:52:09;4.50;99.90
29363;DHT22;16349;53.672;10.014;2023-04-19T04:54:46;4.60;99.90
29363;DHT22;16349;53.672;10.014;2023-04-19T04:57:25;4.70;99.90
29363;DHT22;16349;53.672;10.014;2023-04-19T04:59:53;4.70;99.90
29363;DHT22;16349;53.672;10.014;2023-04-19T05:02:21;4.80;99.90
29363;DHT22;16349;53.672;10.014;2023-04-19T05:04:51;4.80;99.90
29363;DHT22;16349;53.672;10.014;2023-04-19T05:07:18;4.90;99.90
29363;DHT22;16349;53.672;10.014;2023-04-19T05:09:45;5.00;99.90
29363;DHT22;16349;53.672;10.014;2023-04-19T05:12:17;5.00;99.90
29363;DHT22;16349;53.672;10.014;2023-04-19T05:14:47;5.10;99.90
29363;DHT22;16349;53.672;10.014;2023-04-19T05:17:15;5.20;99.90
29363;DHT22;16349;53.672;10.014;2023-04-19T05:19:42;5.20;99.90
29363;DHT22;16349;53.672;10.014;2023-04-19T05:22:10;5.30;99.90
29363;DHT22;16349;53.672;10.014;2023-04-19T05:24:38;5.40;99.90
29363;DHT22;16349;53.672;10.014;2023-04-19T05:27:05;5.40;99.90
29363;DHT22;16349;53.672;10.014;2023-04-19T05:29:33;5.50;99.90
29363;DHT22;16349;53.672;10.014;2023-04-19T05:32:04;5.50;99.90
29363;DHT22;16349;53.672;10.014;2023-04-19T05:34:41;5.60;99.90
29363;DHT22;16349;53.672;10.014;2023-04-19T05:37:12;5.70;99.90
29363;DHT22;16349;53.672;10.014;2023-04-19T05:39:38;5.80;99.90
29363;DHT22;16349;53.672;10.014;2023-04-19T05:42:06;5.80;99.90
29363;DHT22;16349;53.672;10.014;2023-04-19T05:44:33;5.90;99.90
29363;DHT22;16349;53.672;10.014;2023-04-19T05:47:01;6.00;99.90
29363;DHT22;16349;53.672;10.014;2023-04-19T05:49:52;6.00;99.90
29363;DHT22;16349;53.672;10.014;2023-04-19T05:52:27;6.10;99.90
29363;DHT22;16349;53.672;10.014;2023-04-19T05:54:57;6.20;99.90
29363;DHT22;16349;53.672;10.014;2023-04-19T05:57:27;6.20;99.90
29363;DHT22;16349;53.672;10.014;2023-04-19T05:59:54;6.30;99.90
29363;DHT22;16349;53.672;10.014;2023-04-19T06:02:24;6.40;99.90
29363;DHT22;16349;53.672;10.014;2023-04-19T06:04:53;6.40;99.90
29363;DHT22;16349;53.672;10.014;2023-04-19T06:07:22;6.50;99.90
29363;DHT22;16349;53.672;10.014;2023-04-19T06:09:49;6.60;99.90
29363;DHT22;16349;53.672;10.014;2023-04-19T06:12:17;6.70;99.90
29363;DHT22;16349;53.672;10.014;2023-04-19T06:14:44;6.80;99.90
29363;DHT22;16349;53.672;10.014;2023-04-19T06:17:11;6.80;99.90
29363;DHT22;16349;53.672;10.014;2023-04-19T06:19:38;6.90;99.90
29363;DHT22;16349;53.672;10.014;2023-04-19T06:22:08;7.00;99.90
29363;DHT22;16349;53.672;10.014;2023-04-19T06:24:35;7.10;99.90
29363;DHT22;16349;53.672;10.014;2023-04-19T06:27:02;7.20;99.90
29363;DHT22;16349;53.672;10.014;2023-04-19T06:29:30;7.30;99.90
29363;DHT22;16349;53.672;10.014;2023-04-19T06:31:57;7.40;99.90
29363;DHT22;16349;53.672;10.014;2023-04-19T06:34:25;7.40;99.90
29363;DHT22;16349;53.672;10.014;2023-04-19T06:36:52;7.50;99.90
29363;DHT22;16349;53.672;10.014;2023-04-19T06:39:20;7.50;99.90
29363;DHT22;16349;53.672;10.014;2023-04-19T06:41:48;7.60;99.90
29363;DHT22;16349;53.672;10.014;2023-04-19T06:44:16;7.70;99.90
29363;DHT22;16349;53.672;10.014;2023-04-19T06:46:44;7.80;99.90
29363;DHT22;16349;53.672;10.014;2023-04-19T06:49:12;7.90;99.90
29363;DHT22;16349;53.672;10.014;2023-04-19T06:51:38;7.90;99.90
29363;DHT22;16349;53.672;10.014;2023-04-19T06:54:05;8.00;99.90
29363;DHT22;16349;53.672;10.014;2023-04-19T06:56:41;8.10;99.90
29363;DHT22;16349;53.672;10.014;2023-04-19T06:59:11;8.20;99.90
29363;DHT22;16349;53.672;10.014;2023-04-19T07:01:38;8.30;99.90
29363;DHT22;16349;53.672;10.014;2023-04-19T07:04:06;8.40;99.90
29363;DHT22;16349;53.672;10.014;2023-04-19T07:06:52;8.50;99.90
29363;DHT22;16349;53.672;10.014;2023-04-19T07:09:20;8.60;99.90
29363;DHT22;16349;53.672;10.014;2023-04-19T07:11:49;8.70;99.90
29363;DHT22;16349;53.672;10.014;2023-04-19T07:14:17;8.80;99.90
29363;DHT22;16349;53.672;10.014;2023-04-19T07:16:43;8.90;99.90
29363;DHT22;16349;53.672;10.014;2023-04-19T07:19:29;9.00;99.90
29363;DHT22;16349;53.672;10.014;2023-04-19T07:21:56;9.10;99.90
29363;DHT22;16349;53.672;10.014;2023-04-19T07:24:24;9.20;99.90
29363;DHT22;16349;53.672;10.014;2023-04-19T07:26:53;9.20;99.90
29363;DHT22;16349;53.672;10.014;2023-04-19T07:29:21;9.30;99.90
29363;DHT22;16349;53.672;10.014;2023-04-19T07:31:49;9.40;99.90
29363;DHT22;16349;53.672;10.014;2023-04-19T07:34:16;9.50;99.90
29363;DHT22;16349;53.672;10.014;2023-04-19T07:36:43;9.50;99.90
29363;DHT22;16349;53.672;10.014;2023-04-19T07:39:10;9.60;99.90
29363;DHT22;16349;53.672;10.014;2023-04-19T07:41:38;9.60;99.90
29363;DHT22;16349;53.672;10.014;2023-04-19T07:44:06;9.70;99.90
29363;DHT22;16349;53.672;10.014;2023-04-19T07:46:34;9.80;99.90
29363;DHT22;16349;53.672;10.014;2023-04-19T07:49:01;10.00;99.90
29363;DHT22;16349;53.672;10.014;2023-04-19T07:51:50;10.00;99.90
29363;DHT22;16349;53.672;10.014;2023-04-19T07:54:17;10.10;99.90
29363;DHT22;16349;53.672;10.014;2023-04-19T07:56:46;10.30;99.90
29363;DHT22;16349;53.672;10.014;2023-04-19T07:59:14;10.40;99.90
29363;DHT22;16349;53.672;10.014;2023-04-19T08:01:42;10.50;99.90
29363;DHT22;16349;53.672;10.014;2023-04-19T08:04:08;10.60;99.90
29363;DHT22;16349;53.672;10.014;2023-04-19T08:06:40;10.70;99.90
29363;DHT22;16349;53.672;10.014;2023-04-19T08:09:07;10.90;99.90
29363;DHT22;16349;53.672;10.014;2023-04-19T08:11:33;11.00;99.60
29363;DHT22;16349;53.672;10.014;2023-04-19T08:14:00;10.90;99.70
29363;DHT22;16349;53.672;10.014;2023-04-19T08:16:30;11.10;98.30
29363;DHT22;16349;53.672;10.014;2023-04-19T08:18:57;11.10;98.10
29363;DHT22;16349;53.672;10.014;2023-04-19T08:21:24;11.20;98.10
29363;DHT22;16349;53.672;10.014;2023-04-19T08:23:51;11.30;97.90
29363;DHT22;16349;53.672;10.014;2023-04-19T08:26:18;11.40;98.50
29363;DHT22;16349;53.672;10.014;2023-04-19T08:28:45;11.50;97.60
29363;DHT22;16349;53.672;10.014;2023-04-19T08:31:12;11.60;97.40
29363;DHT22;16349;53.672;10.014;2023-04-19T08:33:40;11.70;97.30
29363;DHT22;16349;53.672;10.014;2023-04-19T08:36:08;11.80;96.90
29363;DHT22;16349;53.672;10.014;2023-04-19T08:38:35;11.80;96.90
29363;DHT22;16349;53.672;10.014;2023-04-19T08:41:04;11.80;97.00
29363;DHT22;16349;53.672;10.014;2023-04-19T08:43:34;12.00;96.90
29363;DHT22;16349;53.672;10.014;2023-04-19T08:46:03;12.10;96.60
29363;DHT22;16349;53.672;10.014;2023-04-19T08:48:33;12.20;96.30
29363;DHT22;16349;53.672;10.014;2023-04-19T08:51:03;12.20;95.90
29363;DHT22;16349;53.672;10.014;2023-04-19T08:53:32;12.30;96.30
29363;DHT22;16349;53.672;10.014;2023-04-19T08:56:00;12.30;95.50
29363;DHT22;16349;53.672;10.014;2023-04-19T08:58:28;12.30;94.90
29363;DHT22;16349;53.672;10.014;2023-04-19T09:01:01;12.30;94.00
29363;DHT22;16349;53.672;10.014;2023-04-19T09:03:29;12.20;93.60
29363;DHT22;16349;53.672;10.014;2023-04-19T09:05:57;12.20;92.80
29363;DHT22;16349;53.672;10.014;2023-04-19T09:08:30;12.30;92.90
29363;DHT22;16349;53.672;10.014;2023-04-19T09:10:59;12.20;92.60
29363;DHT22;16349;53.672;10.014;2023-04-19T09:13:29;12.30;92.70
29363;DHT22;16349;53.672;10.014;2023-04-19T09:15:56;12.40;92.80
29363;DHT22;16349;53.672;10.014;2023-04-19T09:18:25;12.50;92.60
29363;DHT22;16349;53.672;10.014;2023-04-19T09:20:53;12.60;92.60
29363;DHT22;16349;53.672;10.014;2023-04-19T09:23:46;12.70;92.10
29363;DHT22;16349;53.672;10.014;2023-04-19T09:26:13;12.70;90.50
29363;DHT22;16349;53.672;10.014;2023-04-19T09:28:54;12.70;90.70
29363;DHT22;16349;53.672;10.014;2023-04-19T09:31:22;12.70;90.30
29363;DHT22;16349;53.672;10.014;2023-04-19T09:33:50;12.70;88.80
29363;DHT22;16349;53.672;10.014;2023-04-19T09:36:27;12.70;88.90
29363;DHT22;16349;53.672;10.014;2023-04-19T09:38:57;12.80;85.10
29363;DHT22;16349;53.672;10.014;2023-04-19T09:41:28;12.70;86.20
29363;DHT22;16349;53.672;10.014;2023-04-19T09:44:08;12.80;85.30
29363;DHT22;16349;53.672;10.014;2023-04-19T09:46:36;12.80;79.70
29363;DHT22;16349;53.672;10.014;2023-04-19T09:49:15;12.90;79.10
29363;DHT22;16349;53.672;10.014;2023-04-19T09:52:04;12.80;74.50
29363;DHT22;16349;53.672;10.014;2023-04-19T09:54:33;12.70;73.60
29363;DHT22;16349;53.672;10.014;2023-04-19T09:57:00;12.80;73.40
29363;DHT22;16349;53.672;10.014;2023-04-19T09:59:28;12.90;70.50
29363;DHT22;16349;53.672;10.014;2023-04-19T10:01:54;12.80;68.10
29363;DHT22;16349;53.672;10.014;2023-04-19T10:04:22;12.80;67.50
29363;DHT22;16349;53.672;10.014;2023-04-19T10:06:49;12.70;64.10
29363;DHT22;16349;53.672;10.014;2023-04-19T10:09:18;12.70;65.50
29363;DHT22;16349;53.672;10.014;2023-04-19T10:11:48;12.80;66.30
29363;DHT22;16349;53.672;10.014;2023-04-19T10:14:18;12.90;65.80
29363;DHT22;16349;53.672;10.014;2023-04-19T10:16:45;12.90;64.90
29363;DHT22;16349;53.672;10.014;2023-04-19T10:19:14;13.00;65.00
29363;DHT22;16349;53.672;10.014;2023-04-19T10:21:42;13.10;65.20
29363;DHT22;16349;53.672;10.014;2023-04-19T10:24:12;13.20;64.60
29363;DHT22;16349;53.672;10.014;2023-04-19T10:27:06;13.20;61.10
29363;DHT22;16349;53.672;10.014;2023-04-19T10:29:58;13.10;58.10
29363;DHT22;16349;53.672;10.014;2023-04-19T10:32:27;13.10;57.60
29363;DHT22;16349;53.672;10.014;2023-04-19T10:34:59;13.10;59.70
29363;DHT22;16349;53.672;10.014;2023-04-19T10:37:26;13.10;59.70
29363;DHT22;16349;53.672;10.014;2023-04-19T10:39:53;13.10;59.30
29363;DHT22;16349;53.672;10.014;2023-04-19T10:42:23;13.30;59.10
29363;DHT22;16349;53.672;10.014;2023-04-19T10:45:30;13.30;56.70
29363;DHT22;16349;53.672;10.014;2023-04-19T10:47:58;13.30;56.50
29363;DHT22;16349;53.672;10.014;2023-04-19T10:50:27;13.30;56.00
29363;DHT22;16349;53.672;10.014;2023-04-19T10:52:54;13.40;57.20
29363;DHT22;16349;53.672;10.014;2023-04-19T10:55:22;13.40;55.80
29363;DHT22;16349;53.672;10.014;2023-04-19T10:58:04;13.40;56.20
29363;DHT22;16349;53.672;10.014;2023-04-19T11:00:32;13.40;53.20
29363;DHT22;16349;53.672;10.014;2023-04-19T11:06:17;13.10;50.90
29363;DHT22;16349;53.672;10.014;2023-04-19T11:08:48;13.00;49.90
29363;DHT22;16349;53.672;10.014;2023-04-19T11:11:15;13.00;51.30
29363;DHT22;16349;53.672;10.014;2023-04-19T11:13:43;13.00;52.00
29363;DHT22;16349;53.672;10.014;2023-04-19T11:16:13;13.20;52.30
29363;DHT22;16349;53.672;10.014;2023-04-19T11:18:41;13.30;51.50
29363;DHT22;16349;53.672;10.014;2023-04-19T11:21:11;13.40;51.50
29363;DHT22;16349;53.672;10.014;2023-04-19T11:23:39;13.40;50.60
29363;DHT22;16349;53.672;10.014;2023-04-19T11:26:09;13.30;50.90
29363;DHT22;16349;53.672;10.014;2023-04-19T11:28:38;13.40;50.40
29363;DHT22;16349;53.672;10.014;2023-04-19T11:31:06;13.30;50.30
29363;DHT22;16349;53.672;10.014;2023-04-19T11:33:35;13.30;50.00
29363;DHT22;16349;53.672;10.014;2023-04-19T11:36:10;13.30;48.80
29363;DHT22;16349;53.672;10.014;2023-04-19T11:38:37;13.20;48.10
29363;DHT22;16349;53.672;10.014;2023-04-19T11:41:04;13.00;47.90
29363;DHT22;16349;53.672;10.014;2023-04-19T11:43:32;13.00;48.40
29363;DHT22;16349;53.672;10.014;2023-04-19T11:46:22;13.00;48.30
29363;DHT22;16349;53.672;10.014;2023-04-19T11:48:52;13.10;50.70
29363;DHT22;16349;53.672;10.014;2023-04-19T11:51:19;13.30;50.00
29363;DHT22;16349;53.672;10.014;2023-04-19T11:53:47;13.20;48.50
29363;DHT22;16349;53.672;10.014;2023-04-19T11:56:16;13.10;48.80
29363;DHT22;16349;53.672;10.014;2023-04-19T11:58:45;13.10;48.40
29363;DHT22;16349;53.672;10.014;2023-04-19T12:01:14;13.00;48.00
29363;DHT22;16349;53.672;10.014;2023-04-19T12:03:46;13.00;47.30
29363;DHT22;16349;53.672;10.014;2023-04-19T12:06:33;13.00;47.90
29363;DHT22;16349;53.672;10.014;2023-04-19T12:09:06;13.00;47.80
29363;DHT22;16349;53.672;10.014;2023-04-19T12:11:52;13.00;47.60
29363;DHT22;16349;53.672;10.014;2023-04-19T12:14:20;13.10;46.60
29363;DHT22;16349;53.672;10.014;2023-04-19T12:17:08;13.00;47.30
29363;DHT22;16349;53.672;10.014;2023-04-19T12:19:42;13.00;47.50
29363;DHT22;16349;53.672;10.014;2023-04-19T12:22:12;13.00;48.10
29363;DHT22;16349;53.672;10.014;2023-04-19T12:24:39;13.00;48.30
29363;DHT22;16349;53.672;10.014;2023-04-19T12:27:08;13.10;48.00
29363;DHT22;16349;53.672;10.014;2023-04-19T12:29:37;13.00;47.60
29363;DHT22;16349;53.672;10.014;2023-04-19T12:32:09;12.80;47.70
29363;DHT22;16349;53.672;10.014;2023-04-19T12:34:41;12.80;48.00
29363;DHT22;16349;53.672;10.014;2023-04-19T12:37:09;12.80;48.50
29363;DHT22;16349;53.672;10.014;2023-04-19T12:39:38;12.90;48.20
29363;DHT22;16349;53.672;10.014;2023-04-19T12:42:04;12.90;48.40
29363;DHT22;16349;53.672;10.014;2023-04-19T12:44:31;12.80;47.60
29363;DHT22;16349;53.672;10.014;2023-04-19T12:46:58;12.90;48.40
29363;DHT22;16349;53.672;10.014;2023-04-19T12:49:28;13.00;48.20
29363;DHT22;16349;53.672;10.014;2023-04-19T12:51:57;13.00;48.70
29363;DHT22;16349;53.672;10.014;2023-04-19T12:54:24;13.00;47.50
29363;DHT22;16349;53.672;10.014;2023-04-19T12:56:50;12.90;47.20
29363;DHT22;16349;53.672;10.014;2023-04-19T12:59:17;12.90;47.50
29363;DHT22;16349;53.672;10.014;2023-04-19T13:01:44;12.90;47.40
29363;DHT22;16349;53.672;10.014;2023-04-19T13:04:11;12.90;47.50
29363;DHT22;16349;53.672;10.014;2023-04-19T13:06:39;12.90;47.60
29363;DHT22;16349;53.672;10.014;2023-04-19T13:09:10;13.10;48.10
29363;DHT22;16349;53.672;10.014;2023-04-19T13:11:39;13.30;47.50
29363;DHT22;16349;53.672;10.014;2023-04-19T13:14:07;13.40;48.20
29363;DHT22;16349;53.672;10.014;2023-04-19T13:16:34;13.60;47.90
29363;DHT22;16349;53.672;10.014;2023-04-19T13:19:04;13.80;48.30
29363;DHT22;16349;53.672;10.014;2023-04-19T13:21:31;14.00;48.10
29363;DHT22;16349;53.672;10.014;2023-04-19T13:23:58;14.20;46.60
29363;DHT22;16349;53.672;10.014;2023-04-19T13:26:28;14.30;47.70
29363;DHT22;16349;53.672;10.014;2023-04-19T13:28:56;14.50;46.70
29363;DHT22;16349;53.672;10.014;2023-04-19T13:31:22;14.40;45.90
29363;DHT22;16349;53.672;10.014;2023-04-19T13:33:53;14.40;44.50
29363;DHT22;16349;53.672;10.014;2023-04-19T13:36:21;14.30;44.60
29363;DHT22;16349;53.672;10.014;2023-04-19T13:38:48;14.50;46.10
29363;DHT22;16349;53.672;10.014;2023-04-19T13:41:15;14.50;44.50
29363;DHT22;16349;53.672;10.014;2023-04-19T13:43:44;14.60;44.60
29363;DHT22;16349;53.672;10.014;2023-04-19T13:46:11;14.80;45.20
29363;DHT22;16349;53.672;10.014;2023-04-19T13:48:38;15.10;44.80
29363;DHT22;16349;53.672;10.014;2023-04-19T13:51:05;15.10;44.50
29363;DHT22;16349;53.672;10.014;2023-04-19T13:53:34;14.90;44.10
29363;DHT22;16349;53.672;10.014;2023-04-19T13:56:01;14.80;44.40
29363;DHT22;16349;53.672;10.014;2023-04-19T13:58:34;14.90;44.10
29363;DHT22;16349;53.672;10.014;2023-04-19T14:01:03;15.10;44.60
29363;DHT22;16349;53.672;10.014;2023-04-19T14:03:30;15.40;44.90
29363;DHT22;16349;53.672;10.014;2023-04-19T14:05:58;15.40;44.20
29363;DHT22;16349;53.672;10.014;2023-04-19T14:08:24;15.70;44.80
29363;DHT22;16349;53.672;10.014;2023-04-19T14:10:52;16.00;45.30
29363;DHT22;16349;53.672;10.014;2023-04-19T14:13:19;15.90;43.80
29363;DHT22;16349;53.672;10.014;2023-04-19T14:15:46;15.80;43.20
29363;DHT22;16349;53.672;10.014;2023-04-19T14:18:14;15.80;43.70
29363;DHT22;16349;53.672;10.014;2023-04-19T14:20:41;15.80;44.30
29363;DHT22;16349;53.672;10.014;2023-04-19T14:23:08;15.90;44.70
29363;DHT22;16349;53.672;10.014;2023-04-19T14:25:35;16.00;44.20
29363;DHT22;16349;53.672;10.014;2023-04-19T14:28:02;16.10;43.90
29363;DHT22;16349;53.672;10.014;2023-04-19T14:33:03;16.20;41.70
29363;DHT22;16349;53.672;10.014;2023-04-19T14:35:31;16.10;42.40
29363;DHT22;16349;53.672;10.014;2023-04-19T14:37:58;16.00;41.90
29363;DHT22;16349;53.672;10.014;2023-04-19T14:40:25;16.20;43.10
29363;DHT22;16349;53.672;10.014;2023-04-19T14:42:55;16.20;41.80
29363;DHT22;16349;53.672;10.014;2023-04-19T14:45:24;16.40;41.20
29363;DHT22;16349;53.672;10.014;2023-04-19T14:47:52;16.30;41.30
29363;DHT22;16349;53.672;10.014;2023-04-19T14:50:19;16.30;41.00
29363;DHT22;16349;53.672;10.014;2023-04-19T14:52:47;16.10;40.60
29363;DHT22;16349;53.672;10.014;2023-04-19T14:55:18;16.50;41.70
29363;DHT22;16349;53.672;10.014;2023-04-19T14:57:45;16.70;40.00
29363;DHT22;16349;53.672;10.014;2023-04-19T15:00:13;16.40;40.60
29363;DHT22;16349;53.672;10.014;2023-04-19T15:02:40;16.40;40.70
29363;DHT22;16349;53.672;10.014;2023-04-19T15:05:12;16.30;40.40
29363;DHT22;16349;53.672;10.014;2023-04-19T15:07:48;16.30;39.60
29363;DHT22;16349;53.672;10.014;2023-04-19T15:10:15;16.30;39.60
29363;DHT22;16349;53.672;10.014;2023-04-19T15:12:42;16.60;39.10
29363;DHT22;16349;53.672;10.014;2023-04-19T15:15:10;16.40;38.60
29363;DHT22;16349;53.672;10.014;2023-04-19T15:17:38;16.50;39.30
29363;DHT22;16349;53.672;10.014;2023-04-19T15:20:07;16.60;39.50
29363;DHT22;16349;53.672;10.014;2023-04-19T15:22:34;16.80;38.70
29363;DHT22;16349;53.672;10.014;2023-04-19T15:25:06;16.70;38.70
29363;DHT22;16349;53.672;10.014;2023-04-19T15:27:33;16.80;38.30
29363;DHT22;16349;53.672;10.014;2023-04-19T15:30:25;16.50;39.10
29363;DHT22;16349;53.672;10.014;2023-04-19T15:32:55;16.40;38.60
29363;DHT22;16349;53.672;10.014;2023-04-19T15:35:23;16.60;40.20
29363;DHT22;16349;53.672;10.014;2023-04-19T15:37:49;16.70;40.50
29363;DHT22;16349;53.672;10.014;2023-04-19T15:40:18;16.90;40.70
29363;DHT22;16349;53.672;10.014;2023-04-19T15:42:45;17.00;40.80